Milford, Virginia
Current Conditions -  °F | °C
As of 11:55 AM on Monday 22 Dec 2014 (Local Time) from KEZF Reporting Station
Moderate Rain Moderate Rain  
Wind Chill: 32°   Ceiling: 1600
Heat Index: 36°   Visibility: 3mi
Dew Point: 34°   Wind: 5mph
Humidity: 93%   Direction: 10°N
Pressure: 30.23"   Gusts: NA
Location:  38.02°N, 77.37°W
Report Text: KEZF 221655Z AUTO 01004KT 3SM RA BKN016 BKN032 OVC043 02/01 A3023 RMK AO2 P0001 T00220012
Loading
Personal Weather Stations






























Interactive Weather Map New forecast layout! Learn more

10-Day Weather Forecast

Advertisements
Track Severe Weather on mobile